^^
Station Historical Data
Daily Summary for January 21, 2018 Units:  Both    English   Metric
« Previous Day
Next Day »
Daily Weekly Monthly Yearly Custom
  High: Low: Average:
Temperature: TemperatureC °F /  -17.8 °C -10.7 °F /  -23.7 °C -7.3 °F /  -21.8 °C
Dew Point: DewpointC °F /  -17.8 °C -12.1 °F /  -24.5 °C -8.4 °F /  -22.4 °C
Humidity: Humidity% 90% 92%
Wind Speed: WindSpeedKMHmph /  0km/h - 0.3mph /  0.5km/h
Wind Gust: WindSpeedGustKMHmph /  0km/h - -
Wind- - NNW
Pressure: PressurehPa in /  0 hPa 1009.4 in /  34178.3 hPa -
Precipitation: 0.0 in /  0 mm    
Historical Graphs
 
 
Tabular Data for January 21, 2018
Time Temperature Dew Point Pressure Wind Wind Speed Wind Gust Humidity Rainfall Rate (Hourly) solar Conditions
TemperatureC °F /  -17.8 °C DewpointC °F /  -17.8 °C PressurehPain /  0hPa Calm     Humidity% HourlyPrecipMMin /  0mm SoftwareType W/m2 Conditions
00:04 -4.9 °F /  -20.5 °C -5.9 °F /  -21.1 °C 1009.4in /  34178.3hPa Calm     93% 0.0in /  0mm WeatherDisplay:10.37 W/m2 FEW
00:09 -4.9 °F /  -20.5 °C -5.9 °F /  -21.1 °C 1009.4in /  34178.3hPa Calm     93% 0.0in /  0mm WeatherDisplay:10.37 W/m2 FEW
00:14 -4.9 °F /  -20.5 °C -5.9 °F /  -21.1 °C 1009.4in /  34178.3hPa Calm     93% 0.0in /  0mm WeatherDisplay:10.37 W/m2 FEW
00:19 -4.9 °F /  -20.5 °C -5.9 °F /  -21.1 °C 1009.4in /  34178.3hPa NNW 0.3mph /  0.5km/h 5.6mph /  9km/h 93% 0.0in /  0mm WeatherDisplay:10.37 W/m2 FEW
00:24 -5.0 °F /  -20.6 °C -5.9 °F /  -21.1 °C 1009.4in /  34178.3hPa Calm     93% 0.0in /  0mm WeatherDisplay:10.37 W/m2 FEW
00:29 -5.0 °F /  -20.6 °C -5.8 °F /  -21 °C 1009.4in /  34178.3hPa NNW 0.2mph /  0.3km/h 3.7mph /  6km/h 94% 0.0in /  0mm WeatherDisplay:10.37 W/m2 FEW
00:34 -5.0 °F /  -20.6 °C -5.8 °F /  -21 °C 1009.4in /  34178.3hPa Calm     94% 0.0in /  0mm WeatherDisplay:10.37 W/m2 FEW
00:39 -5.1 °F /  -20.6 °C -5.9 °F /  -21.1 °C 1009.4in /  34178.3hPa Calm     94% 0.0in /  0mm WeatherDisplay:10.37 W/m2 FEW
00:44 -5.1 °F /  -20.6 °C -5.9 °F /  -21.1 °C 1009.4in /  34178.3hPa Calm     94% 0.0in /  0mm WeatherDisplay:10.37 W/m2 FEW
00:49 -5.1 °F /  -20.6 °C -5.9 °F /  -21.1 °C 1009.4in /  34178.3hPa Calm     94% 0.0in /  0mm WeatherDisplay:10.37 W/m2 FEW
00:54 -5.1 °F /  -20.6 °C -5.9 °F /  -21.1 °C 1009.4in /  34178.3hPa Calm     94% 0.0in /  0mm WeatherDisplay:10.37 W/m2 FEW
00:59 -5.1 °F /  -20.6 °C -5.9 °F /  -21.1 °C 1009.4in /  34178.3hPa Calm     94% 0.0in /  0mm WeatherDisplay:10.37 W/m2 FEW
01:04 -5.1 °F /  -20.6 °C -5.9 °F /  -21.1 °C 1009.4in /  34178.3hPa Calm     94% 0.0in /  0mm WeatherDisplay:10.37 W/m2 FEW
01:09 -5.1 °F /  -20.6 °C -5.9 °F /  -21.1 °C 1009.4in /  34178.3hPa Calm     94% 0.0in /  0mm WeatherDisplay:10.37 W/m2 FEW
01:14 -5.1 °F /  -20.6 °C -5.9 °F /  -21.1 °C 1009.4in /  34178.3hPa Calm     94% 0.0in /  0mm WeatherDisplay:10.37 W/m2 FEW
01:19 -5.1 °F /  -20.6 °C -5.9 °F /  -21.1 °C 1009.4in /  34178.3hPa Calm     94% 0.0in /  0mm WeatherDisplay:10.37 W/m2 FEW
01:24 -5.1 °F /  -20.6 °C -5.9 °F /  -21.1 °C 1009.4in /  34178.3hPa NNW 4.0mph /  6.4km/h 5.6mph /  9km/h 94% 0.0in /  0mm WeatherDisplay:10.37 W/m2 FEW
01:29 -5.1 °F /  -20.6 °C -5.9 °F /  -21.1 °C 1009.4in /  34178.3hPa Calm     94% 0.0in /  0mm WeatherDisplay:10.37 W/m2 FEW
01:34 -5.1 °F /  -20.6 °C -5.9 °F /  -21.1 °C 1009.4in /  34178.3hPa NNW 3.5mph /  5.6km/h 7.4mph /  11.9km/h 94% 0.0in /  0mm WeatherDisplay:10.37 W/m2 FEW
01:39 -5.1 °F /  -20.6 °C -6.1 °F /  -21.2 °C 1009.7in /  34188.4hPa Calm     93% 0.0in /  0mm WeatherDisplay:10.37 W/m2 FEW
01:44 -5.2 °F /  -20.7 °C -6.1 °F /  -21.2 °C 1009.7in /  34188.4hPa NNW 1.3mph /  2.1km/h 3.7mph /  6km/h 93% 0.0in /  0mm WeatherDisplay:10.37 W/m2 FEW
01:49 -5.2 °F /  -20.7 °C -6.1 °F /  -21.2 °C 1009.7in /  34188.4hPa NNW 1.9mph /  3.1km/h 6.4mph /  10.3km/h 93% 0.0in /  0mm WeatherDisplay:10.37 W/m2 FEW
01:54 -5.2 °F /  -20.7 °C -6.2 °F /  -21.2 °C 1009.4in /  34178.3hPa Calm     93% 0.0in /  0mm WeatherDisplay:10.37 W/m2 FEW
01:59 -5.3 °F /  -20.7 °C -6.2 °F /  -21.2 °C 1009.4in /  34178.3hPa Calm     93% 0.0in /  0mm WeatherDisplay:10.37 W/m2 FEW
02:04 -5.3 °F /  -20.7 °C -6.2 °F /  -21.2 °C 1009.7in /  34188.4hPa Calm     93% 0.0in /  0mm WeatherDisplay:10.37 W/m2 FEW
02:09 -5.3 °F /  -20.7 °C -6.2 °F /  -21.2 °C 1009.7in /  34188.4hPa NNW 2.6mph /  4.2km/h 5.6mph /  9km/h 94% 0.0in /  0mm WeatherDisplay:10.37 W/m2 FEW
02:14 -5.4 °F /  -20.8 °C -6.3 °F /  -21.3 °C 1009.7in /  34188.4hPa Calm     94% 0.0in /  0mm WeatherDisplay:10.37 W/m2 FEW
02:19 -5.5 °F /  -20.8 °C -6.4 °F /  -21.3 °C 1009.7in /  34188.4hPa Calm     93% 0.0in /  0mm WeatherDisplay:10.37 W/m2 FEW
02:24 -5.6 °F /  -20.9 °C -6.6 °F /  -21.4 °C 1009.7in /  34188.4hPa Calm     93% 0.0in /  0mm WeatherDisplay:10.37 W/m2 FEW
02:29 -5.7 °F /  -20.9 °C -6.7 °F /  -21.5 °C 1009.7in /  34188.4hPa NNW 0.6mph /  1km/h 3.7mph /  6km/h 93% 0.0in /  0mm WeatherDisplay:10.37 W/m2 FEW
02:34 -5.8 °F /  -21 °C -6.7 °F /  -21.5 °C 1009.7in /  34188.4hPa Calm     93% 0.0in /  0mm WeatherDisplay:10.37 W/m2 FEW
02:39 -5.8 °F /  -21 °C -6.8 °F /  -21.6 °C 1009.7in /  34188.4hPa NNW 0.3mph /  0.5km/h 7.4mph /  11.9km/h 93% 0.0in /  0mm WeatherDisplay:10.37 W/m2 FEW
02:44 -5.9 °F /  -21.1 °C -6.8 °F /  -21.6 °C 1009.7in /  34188.4hPa NNW 1.3mph /  2.1km/h 7.4mph /  11.9km/h 93% 0.0in /  0mm WeatherDisplay:10.37 W/m2 FEW
02:49 -5.9 °F /  -21.1 °C -6.9 °F /  -21.6 °C 1009.7in /  34188.4hPa NNW 0.5mph /  0.8km/h 5.6mph /  9km/h 93% 0.0in /  0mm WeatherDisplay:10.37 W/m2 FEW
02:54 -6.1 °F /  -21.2 °C -7.0 °F /  -21.7 °C 1009.7in /  34188.4hPa Calm     93% 0.0in /  0mm WeatherDisplay:10.37 W/m2 FEW
02:59 -6.2 °F /  -21.2 °C -7.1 °F /  -21.7 °C 1009.7in /  34188.4hPa Calm     93% 0.0in /  0mm WeatherDisplay:10.37 W/m2 FEW
03:04 -6.3 °F /  -21.3 °C -7.3 °F /  -21.8 °C 1009.7in /  34188.4hPa Calm     93% 0.0in /  0mm WeatherDisplay:10.37 W/m2 FEW
03:09 -6.5 °F /  -21.4 °C -7.4 °F /  -21.9 °C 1009.7in /  34188.4hPa Calm     93% 0.0in /  0mm WeatherDisplay:10.37 W/m2 FEW
03:14 -6.7 °F /  -21.5 °C -7.7 °F /  -22.1 °C 1009.7in /  34188.4hPa Calm     93% 0.0in /  0mm WeatherDisplay:10.37 W/m2 FEW
03:19 -6.9 °F /  -21.6 °C -7.9 °F /  -22.2 °C 1009.7in /  34188.4hPa Calm     93% 0.0in /  0mm WeatherDisplay:10.37 W/m2 FEW
03:24 -7.2 °F /  -21.8 °C -8.1 °F /  -22.3 °C 1009.7in /  34188.4hPa Calm     93% 0.0in /  0mm WeatherDisplay:10.37 W/m2 FEW
03:29 -7.3 °F /  -21.8 °C -8.3 °F /  -22.4 °C 1009.7in /  34188.4hPa Calm     93% 0.0in /  0mm WeatherDisplay:10.37 W/m2 FEW
03:34 -7.6 °F /  -22 °C -8.5 °F /  -22.5 °C 1009.7in /  34188.4hPa Calm     93% 0.0in /  0mm WeatherDisplay:10.37 W/m2 FEW
03:39 -7.7 °F /  -22.1 °C -8.7 °F /  -22.6 °C 1009.7in /  34188.4hPa Calm     92% 0.0in /  0mm WeatherDisplay:10.37 W/m2 FEW
03:44 -7.8 °F /  -22.1 °C -8.8 °F /  -22.7 °C 1009.7in /  34188.4hPa Calm     93% 0.0in /  0mm WeatherDisplay:10.37 W/m2 FEW
03:49 -7.9 °F /  -22.2 °C -9.0 °F /  -22.8 °C 1009.7in /  34188.4hPa Calm     92% 0.0in /  0mm WeatherDisplay:10.37 W/m2 FEW
03:54 -8.1 °F /  -22.3 °C -9.1 °F /  -22.8 °C 1009.7in /  34188.4hPa Calm     92% 0.0in /  0mm WeatherDisplay:10.37 W/m2 FEW
03:59 -8.2 °F /  -22.3 °C -9.1 °F /  -22.8 °C 1010.0in /  34198.6hPa Calm     93% 0.0in /  0mm WeatherDisplay:10.37 W/m2 FEW
04:04 -8.2 °F /  -22.3 °C -9.1 °F /  -22.8 °C 1010.0in /  34198.6hPa Calm     93% 0.0in /  0mm WeatherDisplay:10.37 W/m2 FEW
04:09 -8.2 °F /  -22.3 °C -9.1 °F /  -22.8 °C 1010.0in /  34198.6hPa Calm     93% 0.0in /  0mm WeatherDisplay:10.37 W/m2 FEW
04:14 -8.2 °F /  -22.3 °C -9.2 °F /  -22.9 °C 1010.0in /  34198.6hPa Calm     93% 0.0in /  0mm WeatherDisplay:10.37 W/m2 FEW
04:19 -8.3 °F /  -22.4 °C -9.2 °F /  -22.9 °C 1010.0in /  34198.6hPa Calm     93% 0.0in /  0mm WeatherDisplay:10.37 W/m2 FEW
04:24 -8.3 °F /  -22.4 °C -9.3 °F /  -22.9 °C 1010.0in /  34198.6hPa Calm     93% 0.0in /  0mm WeatherDisplay:10.37 W/m2 FEW
04:29 -8.4 °F /  -22.4 °C -9.4 °F /  -23 °C 1010.0in /  34198.6hPa Calm     93% 0.0in /  0mm WeatherDisplay:10.37 W/m2 FEW
04:34 -8.5 °F /  -22.5 °C -9.4 °F /  -23 °C 1010.0in /  34198.6hPa Calm     93% 0.0in /  0mm WeatherDisplay:10.37 W/m2 FEW
04:39 -8.5 °F /  -22.5 °C -9.4 °F /  -23 °C 1010.0in /  34198.6hPa Calm     93% 0.0in /  0mm WeatherDisplay:10.37 W/m2 FEW
04:44 -8.5 °F /  -22.5 °C -9.4 °F /  -23 °C 1010.0in /  34198.6hPa Calm     93% 0.0in /  0mm WeatherDisplay:10.37 W/m2 FEW
04:49 -8.6 °F /  -22.6 °C -9.5 °F /  -23.1 °C 1010.0in /  34198.6hPa Calm     93% 0.0in /  0mm WeatherDisplay:10.37 W/m2 FEW
04:54 -8.3 °F /  -22.4 °C -9.3 °F /  -22.9 °C 1010.0in /  34198.6hPa NNW 1.1mph /  1.8km/h 5.6mph /  9km/h 93% 0.0in /  0mm WeatherDisplay:10.37 W/m2 FEW
04:59 -8.2 °F /  -22.3 °C -9.1 °F /  -22.8 °C 1010.4in /  34212.1hPa NNW 0.3mph /  0.5km/h 3.2mph /  5.1km/h 93% 0.0in /  0mm WeatherDisplay:10.37 W/m2 FEW
05:04 -7.9 °F /  -22.2 °C -8.9 °F /  -22.7 °C 1010.4in /  34212.1hPa NNW 0.6mph /  1km/h 7.4mph /  11.9km/h 93% 0.0in /  0mm WeatherDisplay:10.37 W/m2 FEW
05:09 -7.8 °F /  -22.1 °C -8.7 °F /  -22.6 °C 1010.4in /  34212.1hPa Calm   1.6mph /  2.6km/h 93% 0.0in /  0mm WeatherDisplay:10.37 W/m2 FEW
05:14 -7.7 °F /  -22.1 °C -8.6 °F /  -22.6 °C 1010.4in /  34212.1hPa Calm   3.7mph /  6km/h 93% 0.0in /  0mm WeatherDisplay:10.37 W/m2 FEW
05:19 -7.6 °F /  -22 °C -8.5 °F /  -22.5 °C 1010.4in /  34212.1hPa NNW 2.3mph /  3.7km/h 5.6mph /  9km/h 93% 0.0in /  0mm WeatherDisplay:10.37 W/m2 FEW
05:24 -7.4 °F /  -21.9 °C -8.3 °F /  -22.4 °C 1010.4in /  34212.1hPa NNW 1.1mph /  1.8km/h 3.7mph /  6km/h 93% 0.0in /  0mm WeatherDisplay:10.37 W/m2 FEW
05:29 -7.2 °F /  -21.8 °C -8.2 °F /  -22.3 °C 1010.4in /  34212.1hPa NNW 0.8mph /  1.3km/h 6.4mph /  10.3km/h 93% 0.0in /  0mm WeatherDisplay:10.37 W/m2 FEW
05:34 -7.0 °F /  -21.7 °C -7.9 °F /  -22.2 °C 1010.4in /  34212.1hPa Calm     93% 0.0in /  0mm WeatherDisplay:10.37 W/m2 FEW
05:39 -6.8 °F /  -21.6 °C -7.8 °F /  -22.1 °C 1010.4in /  34212.1hPa Calm     93% 0.0in /  0mm WeatherDisplay:10.37 W/m2 FEW
05:44 -6.7 °F /  -21.5 °C -7.7 °F /  -22.1 °C 1010.7in /  34222.3hPa NNW 1.6mph /  2.6km/h 5.6mph /  9km/h 93% 0.0in /  0mm WeatherDisplay:10.37 W/m2 FEW
05:49 -6.6 °F /  -21.4 °C -7.6 °F /  -22 °C 1010.7in /  34222.3hPa NNW 2.3mph /  3.7km/h 5.6mph /  9km/h 93% 0.0in /  0mm WeatherDisplay:10.37 W/m2 FEW
05:54 -6.5 °F /  -21.4 °C -7.4 °F /  -21.9 °C 1010.7in /  34222.3hPa Calm     93% 0.0in /  0mm WeatherDisplay:10.37 W/m2 FEW
05:59 -6.4 °F /  -21.3 °C -7.4 °F /  -21.9 °C 1010.7in /  34222.3hPa NNW 0.5mph /  0.8km/h 3.2mph /  5.1km/h 93% 0.0in /  0mm WeatherDisplay:10.37 W/m2 FEW
06:04 -6.3 °F /  -21.3 °C -7.3 °F /  -21.8 °C 1010.7in /  34222.3hPa NNW 0.6mph /  1km/h 1.6mph /  2.6km/h 93% 0.0in /  0mm WeatherDisplay:10.37 W/m2 FEW
06:09 -6.3 °F /  -21.3 °C -7.2 °F /  -21.8 °C 1010.7in /  34222.3hPa Calm     93% 0.0in /  0mm WeatherDisplay:10.37 W/m2 FEW
06:14 -6.2 °F /  -21.2 °C -7.2 °F /  -21.8 °C 1010.7in /  34222.3hPa Calm     93% 0.0in /  0mm WeatherDisplay:10.37 W/m2 FEW
06:19 -6.2 °F /  -21.2 °C -7.2 °F /  -21.8 °C 1010.7in /  34222.3hPa NNW 0.8mph /  1.3km/h 1.6mph /  2.6km/h 93% 0.0in /  0mm WeatherDisplay:10.37 W/m2 FEW
06:24 -6.2 °F /  -21.2 °C -7.2 °F /  -21.8 °C 1010.7in /  34222.3hPa Calm     93% 0.0in /  0mm WeatherDisplay:10.37 W/m2 FEW
06:29 -6.2 °F /  -21.2 °C -7.2 °F /  -21.8 °C 1010.7in /  34222.3hPa NNW 2.1mph /  3.4km/h 5.6mph /  9km/h 93% 0.0in /  0mm WeatherDisplay:10.37 W/m2 FEW
06:34 -6.2 °F /  -21.2 °C -7.1 °F /  -21.7 °C 1010.7in /  34222.3hPa NNW 2.9mph /  4.7km/h 5.6mph /  9km/h 93% 0.0in /  0mm WeatherDisplay:10.37 W/m2 FEW
06:39 -6.1 °F /  -21.2 °C -7.1 °F /  -21.7 °C 1010.7in /  34222.3hPa Calm     93% 0.0in /  0mm WeatherDisplay:10.37 W/m2 FEW
06:44 -6.1 °F /  -21.2 °C -7.0 °F /  -21.7 °C 1010.7in /  34222.3hPa Calm     93% 0.0in /  0mm WeatherDisplay:10.37 W/m2 FEW
06:49 -6.0 °F /  -21.1 °C -6.9 °F /  -21.6 °C 1010.7in /  34222.3hPa Calm     93% 0.0in /  0mm WeatherDisplay:10.37 W/m2 FEW
06:54 -6.0 °F /  -21.1 °C -6.9 °F /  -21.6 °C 1010.7in /  34222.3hPa Calm     93% 0.0in /  0mm WeatherDisplay:10.37 W/m2 FEW
06:59 -6.0 °F /  -21.1 °C -6.9 °F /  -21.6 °C 1010.7in /  34222.3hPa Calm     93% 0.0in /  0mm WeatherDisplay:10.37 W/m2 FEW
07:04 -6.0 °F /  -21.1 °C -6.9 °F /  -21.6 °C 1010.7in /  34222.3hPa Calm     93% 0.0in /  0mm WeatherDisplay:10.37 W/m2 FEW
07:09 -6.0 °F /  -21.1 °C -6.9 °F /  -21.6 °C 1011.1in /  34235.8hPa NNW 0.5mph /  0.8km/h 3.7mph /  6km/h 93% 0.0in /  0mm WeatherDisplay:10.37 W/m2 FEW
07:14 -6.0 °F /  -21.1 °C -6.9 °F /  -21.6 °C 1011.1in /  34235.8hPa Calm     93% 0.0in /  0mm WeatherDisplay:10.37 W/m2 FEW
07:19 -6.0 °F /  -21.1 °C -6.9 °F /  -21.6 °C 1011.1in /  34235.8hPa NNW 0.5mph /  0.8km/h 3.2mph /  5.1km/h 93% 0.0in /  0mm WeatherDisplay:10.37 W/m2 FEW
07:24 -6.0 °F /  -21.1 °C -6.9 °F /  -21.6 °C 1011.1in /  34235.8hPa Calm     93% 0.0in /  0mm WeatherDisplay:10.37 W/m2 FEW
07:29 -6.0 °F /  -21.1 °C -6.9 °F /  -21.6 °C 1011.1in /  34235.8hPa NNW 0.5mph /  0.8km/h 5.6mph /  9km/h 93% 0.0in /  0mm WeatherDisplay:10.37 W/m2 FEW
07:34 -6.0 °F /  -21.1 °C -6.9 °F /  -21.6 °C 1011.1in /  34235.8hPa Calm     93% 0.0in /  0mm WeatherDisplay:10.37 W/m2 FEW
07:39 -6.0 °F /  -21.1 °C -6.9 °F /  -21.6 °C 1011.1in /  34235.8hPa Calm     93% 0.0in /  0mm WeatherDisplay:10.37 W/m2 FEW
07:44 -6.0 °F /  -21.1 °C -6.9 °F /  -21.6 °C 1011.1in /  34235.8hPa NNW 2.7mph /  4.3km/h 3.2mph /  5.1km/h 93% 0.0in /  0mm WeatherDisplay:10.37 W/m2 FEW
07:49 -6.0 °F /  -21.1 °C -6.9 °F /  -21.6 °C 1011.1in /  34235.8hPa Calm     93% 0.0in /  0mm WeatherDisplay:10.37 W/m2 FEW
07:54 -6.1 °F /  -21.2 °C -7.0 °F /  -21.7 °C 1011.1in /  34235.8hPa Calm     93% 0.0in /  0mm WeatherDisplay:10.37 W/m2 FEW
08:04 -6.0 °F /  -21.1 °C -6.9 °F /  -21.6 °C 1011.1in /  34235.8hPa NNW 0.2mph /  0.3km/h 1.6mph /  2.6km/h 93% 0.0in /  0mm WeatherDisplay:10.37 W/m2 FEW
08:09 -6.0 °F /  -21.1 °C -6.9 °F /  -21.6 °C 1011.1in /  34235.8hPa Calm   3.7mph /  6km/h 93% 0.0in /  0mm WeatherDisplay:10.37 W/m2 FEW
08:14 -6.1 °F /  -21.2 °C -7.0 °F /  -21.7 °C 1011.1in /  34235.8hPa Calm     93% 0.0in /  0mm WeatherDisplay:10.37 W/m2 FEW
08:19 -6.1 °F /  -21.2 °C -7.0 °F /  -21.7 °C 1011.1in /  34235.8hPa Calm     93% 0.0in /  0mm WeatherDisplay:10.37 W/m2 FEW
08:24 -6.1 °F /  -21.2 °C -7.0 °F /  -21.7 °C 1011.1in /  34235.8hPa Calm     93% 0.0in /  0mm WeatherDisplay:10.37 W/m2 FEW
08:29 -6.1 °F /  -21.2 °C -7.0 °F /  -21.7 °C 1011.1in /  34235.8hPa Calm     93% 0.0in /  0mm WeatherDisplay:10.37 W/m2 FEW
08:44 -6.1 °F /  -21.2 °C -7.1 °F /  -21.7 °C 1011.1in /  34235.8hPa Calm     93% 0.0in /  0mm WeatherDisplay:10.37 W/m2 FEW
08:49 -6.1 °F /  -21.2 °C -7.2 °F /  -21.8 °C 1011.4in /  34246hPa Calm     92% 0.0in /  0mm WeatherDisplay:10.37 W/m2 FEW
08:54 -6.1 °F /  -21.2 °C -7.2 °F /  -21.8 °C 1011.4in /  34246hPa Calm     92% 0.0in /  0mm WeatherDisplay:10.37 W/m2 FEW
08:59 -6.1 °F /  -21.2 °C -7.2 °F /  -21.8 °C 1011.4in /  34246hPa Calm     92% 0.0in /  0mm WeatherDisplay:10.37 W/m2 FEW
09:04 -6.2 °F /  -21.2 °C -7.3 °F /  -21.8 °C 1011.4in /  34246hPa NNW 3.9mph /  6.3km/h 5.6mph /  9km/h 92% 0.0in /  0mm WeatherDisplay:10.37 W/m2 FEW
09:09 -6.2 °F /  -21.2 °C -7.3 °F /  -21.8 °C 1011.4in /  34246hPa Calm     92% 0.0in /  0mm WeatherDisplay:10.37 W/m2 FEW
09:14 -6.2 °F /  -21.2 °C -7.1 °F /  -21.7 °C 1011.4in /  34246hPa Calm     93% 0.0in /  0mm WeatherDisplay:10.37 W/m2 FEW
09:19 -6.2 °F /  -21.2 °C -7.3 °F /  -21.8 °C 1011.4in /  34246hPa Calm     92% 0.0in /  0mm WeatherDisplay:10.37 W/m2 FEW
09:24 -6.2 °F /  -21.2 °C -7.3 °F /  -21.8 °C 1011.4in /  34246hPa Calm     92% 0.0in /  0mm WeatherDisplay:10.37 W/m2 FEW
09:34 -6.3 °F /  -21.3 °C -7.2 °F /  -21.8 °C 1011.7in /  34256.2hPa NNW 0.3mph /  0.5km/h 5.6mph /  9km/h 93% 0.0in /  0mm WeatherDisplay:10.37 W/m2 FEW
09:39 -6.3 °F /  -21.3 °C -7.3 °F /  -21.8 °C 1011.7in /  34256.2hPa Calm     93% 0.0in /  0mm WeatherDisplay:10.37 W/m2 FEW
09:49 -6.3 °F /  -21.3 °C -7.3 °F /  -21.8 °C 1011.7in /  34256.2hPa Calm     93% 0.0in /  0mm WeatherDisplay:10.37 W/m2 FEW
09:59 -6.3 °F /  -21.3 °C -7.3 °F /  -21.8 °C 1011.7in /  34256.2hPa Calm     93% 0.0in /  0mm WeatherDisplay:10.37 W/m2 FEW
10:04 -6.3 °F /  -21.3 °C -7.3 °F /  -21.8 °C 1011.7in /  34256.2hPa Calm     93% 0.0in /  0mm WeatherDisplay:10.37 W/m2 FEW
10:09 -6.3 °F /  -21.3 °C -7.3 °F /  -21.8 °C 1011.7in /  34256.2hPa NNW 1.3mph /  2.1km/h 3.7mph /  6km/h 93% 0.0in /  0mm WeatherDisplay:10.37 W/m2 FEW
10:14 -6.4 °F /  -21.3 °C -7.3 °F /  -21.8 °C 1012.1in /  34269.7hPa Calm   3.7mph /  6km/h 93% 0.0in /  0mm WeatherDisplay:10.37 W/m2 FEW
10:19 -6.4 °F /  -21.3 °C -7.3 °F /  -21.8 °C 1012.1in /  34269.7hPa Calm     93% 0.0in /  0mm WeatherDisplay:10.37 W/m2 FEW
10:24 -6.4 °F /  -21.3 °C -7.3 °F /  -21.8 °C 1012.1in /  34269.7hPa Calm     93% 0.0in /  0mm WeatherDisplay:10.37 W/m2 FEW
10:29 -6.3 °F /  -21.3 °C -7.3 °F /  -21.8 °C 1012.1in /  34269.7hPa Calm     93% 0.0in /  0mm WeatherDisplay:10.37 W/m2 FEW
10:34 -6.3 °F /  -21.3 °C -7.3 °F /  -21.8 °C 1012.1in /  34269.7hPa Calm     93% 0.0in /  0mm WeatherDisplay:10.37 W/m2 FEW
10:39 -6.3 °F /  -21.3 °C -7.2 °F /  -21.8 °C 1012.4in /  34279.9hPa Calm     93% 0.0in /  0mm WeatherDisplay:10.37 W/m2 FEW
10:44 -6.3 °F /  -21.3 °C -7.2 °F /  -21.8 °C 1012.4in /  34279.9hPa Calm   3.7mph /  6km/h 93% 0.0in /  0mm WeatherDisplay:10.37 W/m2 FEW
10:49 -6.3 °F /  -21.3 °C -7.2 °F /  -21.8 °C 1012.4in /  34279.9hPa Calm     93% 0.0in /  0mm WeatherDisplay:10.37 W/m2 FEW
10:54 -6.3 °F /  -21.3 °C -7.4 °F /  -21.9 °C 1012.4in /  34279.9hPa Calm   3.7mph /  6km/h 92% 0.0in /  0mm WeatherDisplay:10.37 W/m2 FEW
10:59 -6.3 °F /  -21.3 °C -7.4 °F /  -21.9 °C 1012.4in /  34279.9hPa Calm     92% 0.0in /  0mm WeatherDisplay:10.37 W/m2 FEW
11:04 -6.3 °F /  -21.3 °C -7.4 °F /  -21.9 °C 1012.4in /  34279.9hPa Calm     92% 0.0in /  0mm WeatherDisplay:10.37 W/m2 FEW
11:09 -6.3 °F /  -21.3 °C -7.4 °F /  -21.9 °C 1012.4in /  34279.9hPa NNW 0.6mph /  1km/h   92% 0.0in /  0mm WeatherDisplay:10.37 W/m2 FEW
11:14 -6.3 °F /  -21.3 °C -7.4 °F /  -21.9 °C 1012.4in /  34279.9hPa Calm   1.9mph /  3.1km/h 92% 0.0in /  0mm WeatherDisplay:10.37 W/m2 FEW
11:19 -6.3 °F /  -21.3 °C -7.4 °F /  -21.9 °C 1012.4in /  34279.9hPa NNW 2.3mph /  3.7km/h 5.6mph /  9km/h 92% 0.0in /  0mm WeatherDisplay:10.37 W/m2 FEW
11:24 -6.5 °F /  -21.4 °C -7.6 °F /  -22 °C 1012.4in /  34279.9hPa NNW 1.3mph /  2.1km/h 5.6mph /  9km/h 92% 0.0in /  0mm WeatherDisplay:10.37 W/m2 FEW
11:29 -6.6 °F /  -21.4 °C -7.7 °F /  -22.1 °C 1012.4in /  34279.9hPa NNW 6.0mph /  9.7km/h 9.3mph /  15km/h 92% 0.0in /  0mm WeatherDisplay:10.37 W/m2 FEW
11:34 -6.7 °F /  -21.5 °C -7.8 °F /  -22.1 °C 1012.8in /  34293.4hPa NNW 6.1mph /  9.8km/h 7.4mph /  11.9km/h 92% 0.0in /  0mm WeatherDisplay:10.37 W/m2 FEW
11:39 -6.8 °F /  -21.6 °C -7.8 °F /  -22.1 °C 1012.4in /  34279.9hPa NNW 2.7mph /  4.3km/h 4.8mph /  7.7km/h 92% 0.0in /  0mm WeatherDisplay:10.37 W/m2 FEW
11:44 -6.8 °F /  -21.6 °C -7.8 °F /  -22.1 °C 1012.4in /  34279.9hPa NNW 0.6mph /  1km/h 1.6mph /  2.6km/h 92% 0.0in /  0mm WeatherDisplay:10.37 W/m2 FEW
11:49 -6.8 °F /  -21.6 °C -7.8 °F /  -22.1 °C 1012.8in /  34293.4hPa NNW 0.2mph /  0.3km/h 3.7mph /  6km/h 92% 0.0in /  0mm WeatherDisplay:10.37 W/m2 FEW
11:54 -6.8 °F /  -21.6 °C -7.8 °F /  -22.1 °C 1012.8in /  34293.4hPa Calm     92% 0.0in /  0mm WeatherDisplay:10.37 W/m2 FEW
11:59 -6.7 °F /  -21.5 °C -7.7 °F /  -22.1 °C 1012.8in /  34293.4hPa Calm     92% 0.0in /  0mm WeatherDisplay:10.37 W/m2 FEW
12:04 -6.6 °F /  -21.4 °C -7.7 °F /  -22.1 °C 1012.8in /  34293.4hPa Calm     92% 0.0in /  0mm WeatherDisplay:10.37 W/m2 FEW
12:09 -6.6 °F /  -21.4 °C -7.7 °F /  -22.1 °C 1012.8in /  34293.4hPa Calm     92% 0.0in /  0mm WeatherDisplay:10.37 W/m2 FEW
12:14 -6.5 °F /  -21.4 °C -7.6 °F /  -22 °C 1012.4in /  34279.9hPa Calm     92% 0.0in /  0mm WeatherDisplay:10.37 W/m2 FEW
12:19 -6.5 °F /  -21.4 °C -7.6 °F /  -22 °C 1012.4in /  34279.9hPa Calm     92% 0.0in /  0mm WeatherDisplay:10.37 W/m2 FEW
12:24 -6.6 °F /  -21.4 °C -7.7 °F /  -22.1 °C 1012.8in /  34293.4hPa Calm     92% 0.0in /  0mm WeatherDisplay:10.37 W/m2 FEW
12:29 -6.6 °F /  -21.4 °C -7.7 °F /  -22.1 °C 1012.8in /  34293.4hPa Calm     92% 0.0in /  0mm WeatherDisplay:10.37 W/m2 FEW
12:34 -6.6 °F /  -21.4 °C -7.7 °F /  -22.1 °C 1012.4in /  34279.9hPa Calm     92% 0.0in /  0mm WeatherDisplay:10.37 W/m2 FEW
12:39 -6.6 °F /  -21.4 °C -7.7 °F /  -22.1 °C 1012.8in /  34293.4hPa Calm     92% 0.0in /  0mm WeatherDisplay:10.37 W/m2 FEW
12:44 -6.6 °F /  -21.4 °C -7.7 °F /  -22.1 °C 1012.8in /  34293.4hPa Calm     92% 0.0in /  0mm WeatherDisplay:10.37 W/m2 FEW
12:49 -6.7 °F /  -21.5 °C -7.7 °F /  -22.1 °C 1012.8in /  34293.4hPa Calm   5.6mph /  9km/h 92% 0.0in /  0mm WeatherDisplay:10.37 W/m2 FEW
12:54 -6.7 °F /  -21.5 °C -7.7 °F /  -22.1 °C 1012.4in /  34279.9hPa NNW 2.7mph /  4.3km/h 5.6mph /  9km/h 92% 0.0in /  0mm WeatherDisplay:10.37 W/m2 FEW
12:59 -6.7 °F /  -21.5 °C -7.9 °F /  -22.2 °C 1012.4in /  34279.9hPa NNW 1.9mph /  3.1km/h 5.6mph /  9km/h 91% 0.0in /  0mm WeatherDisplay:10.37 W/m2 FEW
13:04 -6.7 °F /  -21.5 °C -7.8 °F /  -22.1 °C 1012.8in /  34293.4hPa NNW 1.1mph /  1.8km/h 5.6mph /  9km/h 92% 0.0in /  0mm WeatherDisplay:10.37 W/m2 FEW
13:09 -6.8 °F /  -21.6 °C -7.8 °F /  -22.1 °C 1012.8in /  34293.4hPa NNW 3.5mph /  5.6km/h 5.6mph /  9km/h 92% 0.0in /  0mm WeatherDisplay:10.37 W/m2 FEW
13:14 -6.8 °F /  -21.6 °C -8.1 °F /  -22.3 °C 1012.4in /  34279.9hPa NNW 0.6mph /  1km/h 3.7mph /  6km/h 91% 0.0in /  0mm WeatherDisplay:10.37 W/m2 FEW
13:19 -6.9 °F /  -21.6 °C -8.1 °F /  -22.3 °C 1012.8in /  34293.4hPa NW 1.6mph /  2.6km/h 4.8mph /  7.7km/h 91% 0.0in /  0mm WeatherDisplay:10.37 W/m2 FEW
13:24 -6.9 °F /  -21.6 °C -8.2 °F /  -22.3 °C 1012.8in /  34293.4hPa NNW 3.7mph /  6km/h 3.7mph /  6km/h 91% 0.0in /  0mm WeatherDisplay:10.37 W/m2 FEW
13:29 -6.9 °F /  -21.6 °C -8.2 °F /  -22.3 °C 1012.8in /  34293.4hPa NNW 2.3mph /  3.7km/h 5.6mph /  9km/h 91% 0.0in /  0mm WeatherDisplay:10.37 W/m2 FEW
13:34 -6.9 °F /  -21.6 °C -8.2 °F /  -22.3 °C 1012.8in /  34293.4hPa NNW 0.2mph /  0.3km/h 1.9mph /  3.1km/h 91% 0.0in /  0mm WeatherDisplay:10.37 W/m2 FEW
13:39 -6.9 °F /  -21.6 °C -8.2 °F /  -22.3 °C 1012.8in /  34293.4hPa Calm     91% 0.0in /  0mm WeatherDisplay:10.37 W/m2 FEW
13:44 -6.9 °F /  -21.6 °C -8.1 °F /  -22.3 °C 1012.8in /  34293.4hPa Calm     91% 0.0in /  0mm WeatherDisplay:10.37 W/m2 FEW
13:49 -6.9 °F /  -21.6 °C -8.2 °F /  -22.3 °C 1012.8in /  34293.4hPa Calm   5.6mph /  9km/h 91% 0.0in /  0mm WeatherDisplay:10.37 W/m2 FEW
13:54 -6.9 °F /  -21.6 °C -8.2 °F /  -22.3 °C 1012.8in /  34293.4hPa Calm   1.9mph /  3.1km/h 91% 0.0in /  0mm WeatherDisplay:10.37 W/m2 FEW
13:59 -7.0 °F /  -21.7 °C -8.2 °F /  -22.3 °C 1012.8in /  34293.4hPa Calm   3.7mph /  6km/h 91% 0.0in /  0mm WeatherDisplay:10.37 W/m2 FEW
14:04 -7.0 °F /  -21.7 °C -8.2 °F /  -22.3 °C 1012.8in /  34293.4hPa Calm     91% 0.0in /  0mm WeatherDisplay:10.37 W/m2 FEW
14:09 -7.1 °F /  -21.7 °C -8.3 °F /  -22.4 °C 1012.8in /  34293.4hPa Calm     91% 0.0in /  0mm WeatherDisplay:10.37 W/m2 FEW
14:14 -7.1 °F /  -21.7 °C -8.3 °F /  -22.4 °C 1012.8in /  34293.4hPa NNW 2.6mph /  4.2km/h 9.3mph /  15km/h 91% 0.0in /  0mm WeatherDisplay:10.37 W/m2 FEW
14:19 -7.2 °F /  -21.8 °C -8.4 °F /  -22.4 °C 1012.8in /  34293.4hPa Calm     91% 0.0in /  0mm WeatherDisplay:10.37 W/m2 FEW
14:24 -7.2 °F /  -21.8 °C -8.4 °F /  -22.4 °C 1013.1in /  34303.6hPa Calm     91% 0.0in /  0mm WeatherDisplay:10.37 W/m2 FEW
14:29 -7.3 °F /  -21.8 °C -8.5 °F /  -22.5 °C 1013.1in /  34303.6hPa Calm     91% 0.0in /  0mm WeatherDisplay:10.37 W/m2 FEW
14:34 -7.2 °F /  -21.8 °C -8.4 °F /  -22.4 °C 1013.1in /  34303.6hPa Calm     91% 0.0in /  0mm WeatherDisplay:10.37 W/m2 FEW
14:39 -7.2 °F /  -21.8 °C -8.4 °F /  -22.4 °C 1013.1in /  34303.6hPa Calm     91% 0.0in /  0mm WeatherDisplay:10.37 W/m2 FEW
14:44 -7.2 °F /  -21.8 °C -8.4 °F /  -22.4 °C 1013.1in /  34303.6hPa NNW 1.0mph /  1.6km/h 5.6mph /  9km/h 91% 0.0in /  0mm WeatherDisplay:10.37 W/m2 FEW
14:49 -7.2 °F /  -21.8 °C -8.4 °F /  -22.4 °C 1013.1in /  34303.6hPa Calm     91% 0.0in /  0mm WeatherDisplay:10.37 W/m2 FEW
14:54 -7.2 °F /  -21.8 °C -8.4 °F /  -22.4 °C 1013.1in /  34303.6hPa NNW 0.3mph /  0.5km/h 1.9mph /  3.1km/h 91% 0.0in /  0mm WeatherDisplay:10.37 W/m2 FEW
14:59 -7.3 °F /  -21.8 °C -8.5 °F /  -22.5 °C 1013.1in /  34303.6hPa NNW 2.4mph /  3.9km/h 5.6mph /  9km/h 91% 0.0in /  0mm WeatherDisplay:10.37 W/m2 FEW
15:04 -7.3 °F /  -21.8 °C -8.6 °F /  -22.6 °C 1013.1in /  34303.6hPa NNW 1.9mph /  3.1km/h 5.6mph /  9km/h 91% 0.0in /  0mm WeatherDisplay:10.37 W/m2 FEW
15:09 -7.3 °F /  -21.8 °C -8.5 °F /  -22.5 °C 1013.1in /  34303.6hPa NNW 2.1mph /  3.4km/h 5.6mph /  9km/h 91% 0.0in /  0mm WeatherDisplay:10.37 W/m2 FEW
15:14 -7.3 °F /  -21.8 °C -8.5 °F /  -22.5 °C 1013.1in /  34303.6hPa Calm     91% 0.0in /  0mm WeatherDisplay:10.37 W/m2 FEW
15:19 -7.3 °F /  -21.8 °C -8.6 °F /  -22.6 °C 1013.1in /  34303.6hPa Calm     91% 0.0in /  0mm WeatherDisplay:10.37 W/m2 FEW
15:24 -7.3 °F /  -21.8 °C -8.6 °F /  -22.6 °C 1013.1in /  34303.6hPa NNW 0.8mph /  1.3km/h 3.7mph /  6km/h 91% 0.0in /  0mm WeatherDisplay:10.37 W/m2 FEW
15:29 -7.4 °F /  -21.9 °C -8.6 °F /  -22.6 °C 1013.1in /  34303.6hPa Calm     91% 0.0in /  0mm WeatherDisplay:10.37 W/m2 FEW
15:34 -7.4 °F /  -21.9 °C -8.6 °F /  -22.6 °C 1013.1in /  34303.6hPa Calm     91% 0.0in /  0mm WeatherDisplay:10.37 W/m2 FEW
15:39 -7.4 °F /  -21.9 °C -8.6 °F /  -22.6 °C 1013.1in /  34303.6hPa Calm     91% 0.0in /  0mm WeatherDisplay:10.37 W/m2 FEW
15:44 -7.4 °F /  -21.9 °C -8.7 °F /  -22.6 °C 1013.1in /  34303.6hPa Calm     91% 0.0in /  0mm WeatherDisplay:10.37 W/m2 FEW
15:49 -7.4 °F /  -21.9 °C -8.7 °F /  -22.6 °C 1013.1in /  34303.6hPa Calm     91% 0.0in /  0mm WeatherDisplay:10.37 W/m2 FEW
15:54 -7.5 °F /  -21.9 °C -8.7 °F /  -22.6 °C 1013.1in /  34303.6hPa Calm     91% 0.0in /  0mm WeatherDisplay:10.37 W/m2 FEW
15:59 -7.6 °F /  -22 °C -8.8 °F /  -22.7 °C 1013.1in /  34303.6hPa Calm     91% 0.0in /  0mm WeatherDisplay:10.37 W/m2 FEW
16:04 -7.7 °F /  -22.1 °C -8.9 °F /  -22.7 °C 1013.1in /  34303.6hPa Calm     91% 0.0in /  0mm WeatherDisplay:10.37 W/m2 FEW
16:09 -7.8 °F /  -22.1 °C -9.0 °F /  -22.8 °C 1013.1in /  34303.6hPa Calm     91% 0.0in /  0mm WeatherDisplay:10.37 W/m2 FEW
16:14 -7.9 °F /  -22.2 °C -9.2 °F /  -22.9 °C 1013.1in /  34303.6hPa Calm     90% 0.0in /  0mm WeatherDisplay:10.37 W/m2 FEW
16:19 -8.0 °F /  -22.2 °C -9.3 °F /  -22.9 °C 1013.1in /  34303.6hPa Calm     90% 0.0in /  0mm WeatherDisplay:10.37 W/m2 FEW
16:24 -8.1 °F /  -22.3 °C -9.4 °F /  -23 °C 1013.1in /  34303.6hPa Calm     90% 0.0in /  0mm WeatherDisplay:10.37 W/m2 FEW
16:29 -8.2 °F /  -22.3 °C -9.6 °F /  -23.1 °C 1013.1in /  34303.6hPa Calm     90% 0.0in /  0mm WeatherDisplay:10.37 W/m2 FEW
16:34 -8.3 °F /  -22.4 °C -9.7 °F /  -23.2 °C 1013.1in /  34303.6hPa Calm     90% 0.0in /  0mm WeatherDisplay:10.37 W/m2 FEW
16:39 -8.4 °F /  -22.4 °C -9.7 °F /  -23.2 °C 1013.1in /  34303.6hPa Calm     90% 0.0in /  0mm WeatherDisplay:10.37 W/m2 FEW
16:44 -8.4 °F /  -22.4 °C -9.6 °F /  -23.1 °C 1013.1in /  34303.6hPa Calm     91% 0.0in /  0mm WeatherDisplay:10.37 W/m2 FEW
16:49 -8.3 °F /  -22.4 °C -9.6 °F /  -23.1 °C 1013.1in /  34303.6hPa Calm     91% 0.0in /  0mm WeatherDisplay:10.37 W/m2 FEW
16:54 -8.3 °F /  -22.4 °C -9.6 °F /  -23.1 °C 1013.1in /  34303.6hPa Calm     91% 0.0in /  0mm WeatherDisplay:10.37 W/m2 FEW
16:59 -8.3 °F /  -22.4 °C -9.5 °F /  -23.1 °C 1013.4in /  34313.7hPa NNW 1.3mph /  2.1km/h 5.6mph /  9km/h 91% 0.0in /  0mm WeatherDisplay:10.37 W/m2 FEW
17:04 -8.2 °F /  -22.3 °C -9.3 °F /  -22.9 °C 1013.4in /  34313.7hPa NNW 0.3mph /  0.5km/h 3.7mph /  6km/h 92% 0.0in /  0mm WeatherDisplay:10.37 W/m2 FEW
17:09 -8.2 °F /  -22.3 °C -9.3 °F /  -22.9 °C 1013.4in /  34313.7hPa Calm     92% 0.0in /  0mm WeatherDisplay:10.37 W/m2 FEW
17:14 -8.3 °F /  -22.4 °C -9.3 °F /  -22.9 °C 1013.4in /  34313.7hPa Calm     92% 0.0in /  0mm WeatherDisplay:10.37 W/m2 FEW
17:19 -8.3 °F /  -22.4 °C -9.3 °F /  -22.9 °C 1013.4in /  34313.7hPa Calm     92% 0.0in /  0mm WeatherDisplay:10.37 W/m2 FEW
17:24 -8.3 °F /  -22.4 °C -9.4 °F /  -23 °C 1013.4in /  34313.7hPa Calm     92% 0.0in /  0mm WeatherDisplay:10.37 W/m2 FEW
17:29 -8.3 °F /  -22.4 °C -9.4 °F /  -23 °C 1013.4in /  34313.7hPa NNW 0.2mph /  0.3km/h   92% 0.0in /  0mm WeatherDisplay:10.37 W/m2 FEW
17:34 -8.4 °F /  -22.4 °C -9.4 °F /  -23 °C 1013.4in /  34313.7hPa Calm     92% 0.0in /  0mm WeatherDisplay:10.37 W/m2 FEW
17:39 -8.4 °F /  -22.4 °C -9.4 °F /  -23 °C 1013.8in /  34327.3hPa Calm     92% 0.0in /  0mm WeatherDisplay:10.37 W/m2 FEW
17:44 -8.4 °F /  -22.4 °C -9.5 °F /  -23.1 °C 1013.8in /  34327.3hPa Calm     92% 0.0in /  0mm WeatherDisplay:10.37 W/m2 FEW
17:49 -8.4 °F /  -22.4 °C -9.4 °F /  -23 °C 1013.8in /  34327.3hPa Calm     92% 0.0in /  0mm WeatherDisplay:10.37 W/m2 FEW
17:54 -8.3 °F /  -22.4 °C -9.4 °F /  -23 °C 1013.8in /  34327.3hPa Calm     92% 0.0in /  0mm WeatherDisplay:10.37 W/m2 FEW
17:59 -8.3 °F /  -22.4 °C -9.4 °F /  -23 °C 1013.8in /  34327.3hPa Calm     92% 0.0in /  0mm WeatherDisplay:10.37 W/m2 FEW
18:04 -8.3 °F /  -22.4 °C -9.3 °F /  -22.9 °C 1013.8in /  34327.3hPa Calm     92% 0.0in /  0mm WeatherDisplay:10.37 W/m2 FEW
18:09 -8.2 °F /  -22.3 °C -9.3 °F /  -22.9 °C 1013.8in /  34327.3hPa Calm     92% 0.0in /  0mm WeatherDisplay:10.37 W/m2 FEW
18:14 -8.2 °F /  -22.3 °C -9.3 °F /  -22.9 °C 1013.8in /  34327.3hPa Calm     92% 0.0in /  0mm WeatherDisplay:10.37 W/m2 FEW
18:19 -8.2 °F /  -22.3 °C -9.3 °F /  -22.9 °C 1013.8in /  34327.3hPa Calm     92% 0.0in /  0mm WeatherDisplay:10.37 W/m2 FEW
18:24 -8.2 °F /  -22.3 °C -9.3 °F /  -22.9 °C 1013.8in /  34327.3hPa Calm     92% 0.0in /  0mm WeatherDisplay:10.37 W/m2 FEW
18:29 -8.2 °F /  -22.3 °C -9.3 °F /  -22.9 °C 1013.8in /  34327.3hPa Calm   1.9mph /  3.1km/h 92% 0.0in /  0mm WeatherDisplay:10.37 W/m2 FEW
18:34 -8.3 °F /  -22.4 °C -9.3 °F /  -22.9 °C 1013.8in /  34327.3hPa Calm     92% 0.0in /  0mm WeatherDisplay:10.37 W/m2 FEW
18:39 -8.3 °F /  -22.4 °C -9.4 °F /  -23 °C 1013.8in /  34327.3hPa Calm     92% 0.0in /  0mm WeatherDisplay:10.37 W/m2 FEW
18:44 -8.4 °F /  -22.4 °C -9.4 °F /  -23 °C 1013.8in /  34327.3hPa Calm     92% 0.0in /  0mm WeatherDisplay:10.37 W/m2 FEW
18:49 -8.4 °F /  -22.4 °C -9.5 °F /  -23.1 °C 1013.8in /  34327.3hPa Calm     92% 0.0in /  0mm WeatherDisplay:10.37 W/m2 FEW
18:54 -8.4 °F /  -22.4 °C -9.5 °F /  -23.1 °C 1013.8in /  34327.3hPa Calm     92% 0.0in /  0mm WeatherDisplay:10.37 W/m2 FEW
18:59 -8.5 °F /  -22.5 °C -9.6 °F /  -23.1 °C 1013.8in /  34327.3hPa Calm     92% 0.0in /  0mm WeatherDisplay:10.37 W/m2 FEW
19:04 -8.6 °F /  -22.6 °C -9.6 °F /  -23.1 °C 1013.8in /  34327.3hPa Calm     92% 0.0in /  0mm WeatherDisplay:10.37 W/m2 FEW
19:09 -8.6 °F /  -22.6 °C -9.7 °F /  -23.2 °C 1013.8in /  34327.3hPa Calm     92% 0.0in /  0mm WeatherDisplay:10.37 W/m2 FEW
19:14 -8.6 °F /  -22.6 °C -9.7 °F /  -23.2 °C 1013.8in /  34327.3hPa Calm     92% 0.0in /  0mm WeatherDisplay:10.37 W/m2 FEW
19:19 -8.7 °F /  -22.6 °C -9.7 °F /  -23.2 °C 1013.8in /  34327.3hPa Calm     92% 0.0in /  0mm WeatherDisplay:10.37 W/m2 FEW
19:24 -8.7 °F /  -22.6 °C -9.7 °F /  -23.2 °C 1013.8in /  34327.3hPa Calm     92% 0.0in /  0mm WeatherDisplay:10.37 W/m2 FEW
19:29 -8.7 °F /  -22.6 °C -9.8 °F /  -23.2 °C 1013.8in /  34327.3hPa Calm     92% 0.0in /  0mm WeatherDisplay:10.37 W/m2 FEW
19:34 -8.8 °F /  -22.7 °C -10.0 °F /  -23.3 °C 1013.8in /  34327.3hPa Calm     91% 0.0in /  0mm WeatherDisplay:10.37 W/m2 FEW
19:39 -8.8 °F /  -22.7 °C -10.0 °F /  -23.3 °C 1013.8in /  34327.3hPa Calm     91% 0.0in /  0mm WeatherDisplay:10.37 W/m2 FEW
19:44 -8.8 °F /  -22.7 °C -10.0 °F /  -23.3 °C 1013.8in /  34327.3hPa Calm     91% 0.0in /  0mm WeatherDisplay:10.37 W/m2 FEW
19:49 -8.8 °F /  -22.7 °C -9.8 °F /  -23.2 °C 1013.8in /  34327.3hPa Calm     92% 0.0in /  0mm WeatherDisplay:10.37 W/m2 FEW
19:54 -8.8 °F /  -22.7 °C -9.8 °F /  -23.2 °C 1013.8in /  34327.3hPa Calm     92% 0.0in /  0mm WeatherDisplay:10.37 W/m2 FEW
19:59 -8.8 °F /  -22.7 °C -9.8 °F /  -23.2 °C 1013.8in /  34327.3hPa Calm     92% 0.0in /  0mm WeatherDisplay:10.37 W/m2 FEW
20:04 -8.8 °F /  -22.7 °C -9.8 °F /  -23.2 °C 1013.8in /  34327.3hPa Calm     92% 0.0in /  0mm WeatherDisplay:10.37 W/m2 FEW
20:09 -8.8 °F /  -22.7 °C -9.8 °F /  -23.2 °C 1013.8in /  34327.3hPa Calm     92% 0.0in /  0mm WeatherDisplay:10.37 W/m2 FEW
20:14 -8.8 °F /  -22.7 °C -10.1 °F /  -23.4 °C 1013.8in /  34327.3hPa Calm     91% 0.0in /  0mm WeatherDisplay:10.37 W/m2 FEW
20:19 -8.9 °F /  -22.7 °C -10.2 °F /  -23.4 °C 1013.8in /  34327.3hPa Calm     91% 0.0in /  0mm WeatherDisplay:10.37 W/m2 FEW
20:24 -9.0 °F /  -22.8 °C -10.2 °F /  -23.4 °C 1013.8in /  34327.3hPa Calm     91% 0.0in /  0mm WeatherDisplay:10.37 W/m2 FEW
20:29 -9.1 °F /  -22.8 °C -10.3 °F /  -23.5 °C 1013.8in /  34327.3hPa Calm     91% 0.0in /  0mm WeatherDisplay:10.37 W/m2 FEW
20:34 -9.2 °F /  -22.9 °C -10.4 °F /  -23.6 °C 1013.8in /  34327.3hPa Calm     91% 0.0in /  0mm WeatherDisplay:10.37 W/m2 FEW
20:39 -9.3 °F /  -22.9 °C -10.6 °F /  -23.7 °C 1013.8in /  34327.3hPa Calm     91% 0.0in /  0mm WeatherDisplay:10.37 W/m2 FEW
20:44 -9.4 °F /  -23 °C -10.7 °F /  -23.7 °C 1013.8in /  34327.3hPa Calm     91% 0.0in /  0mm WeatherDisplay:10.37 W/m2 FEW
20:49 -9.6 °F /  -23.1 °C -10.8 °F /  -23.8 °C 1013.8in /  34327.3hPa Calm     91% 0.0in /  0mm WeatherDisplay:10.37 W/m2 FEW
20:54 -9.6 °F /  -23.1 °C -10.8 °F /  -23.8 °C 1013.4in /  34313.7hPa Calm     91% 0.0in /  0mm WeatherDisplay:10.37 W/m2 FEW
20:59 -9.7 °F /  -23.2 °C -10.8 °F /  -23.8 °C 1013.4in /  34313.7hPa Calm     91% 0.0in /  0mm WeatherDisplay:10.37 W/m2 FEW
21:04 -9.7 °F /  -23.2 °C -10.9 °F /  -23.8 °C 1013.8in /  34327.3hPa Calm     91% 0.0in /  0mm WeatherDisplay:10.37 W/m2 FEW
21:09 -9.8 °F /  -23.2 °C -10.9 °F /  -23.8 °C 1013.8in /  34327.3hPa Calm     91% 0.0in /  0mm WeatherDisplay:10.37 W/m2 FEW
21:14 -9.8 °F /  -23.2 °C -11.2 °F /  -24 °C 1013.8in /  34327.3hPa Calm     90% 0.0in /  0mm WeatherDisplay:10.37 W/m2 FEW
21:19 -9.9 °F /  -23.3 °C -11.1 °F /  -23.9 °C 1013.8in /  34327.3hPa Calm     91% 0.0in /  0mm WeatherDisplay:10.37 W/m2 FEW
21:24 -10.0 °F /  -23.3 °C -11.2 °F /  -24 °C 1013.4in /  34313.7hPa Calm     91% 0.0in /  0mm WeatherDisplay:10.37 W/m2 FEW
21:29 -10.1 °F /  -23.4 °C -11.4 °F /  -24.1 °C 1013.4in /  34313.7hPa Calm     90% 0.0in /  0mm WeatherDisplay:10.37 W/m2 FEW
21:34 -10.2 °F /  -23.4 °C -11.5 °F /  -24.2 °C 1013.4in /  34313.7hPa Calm     90% 0.0in /  0mm WeatherDisplay:10.37 W/m2 FEW
21:39 -10.2 °F /  -23.4 °C -11.6 °F /  -24.2 °C 1013.4in /  34313.7hPa Calm     90% 0.0in /  0mm WeatherDisplay:10.37 W/m2 FEW
21:44 -10.3 °F /  -23.5 °C -11.6 °F /  -24.2 °C 1013.4in /  34313.7hPa Calm     90% 0.0in /  0mm WeatherDisplay:10.37 W/m2 FEW
21:49 -10.3 °F /  -23.5 °C -11.7 °F /  -24.3 °C 1013.4in /  34313.7hPa Calm     90% 0.0in /  0mm WeatherDisplay:10.37 W/m2 FEW
21:54 -10.4 °F /  -23.6 °C -11.8 °F /  -24.3 °C 1013.8in /  34327.3hPa Calm     90% 0.0in /  0mm WeatherDisplay:10.37 W/m2 FEW
21:59 -10.6 °F /  -23.7 °C -11.9 °F /  -24.4 °C 1013.8in /  34327.3hPa Calm     90% 0.0in /  0mm WeatherDisplay:10.37 W/m2 FEW
22:04 -10.6 °F /  -23.7 °C -11.9 °F /  -24.4 °C 1013.8in /  34327.3hPa Calm     90% 0.0in /  0mm WeatherDisplay:10.37 W/m2 FEW
22:09 -10.7 °F /  -23.7 °C -12.0 °F /  -24.4 °C 1013.8in /  34327.3hPa Calm     90% 0.0in /  0mm WeatherDisplay:10.37 W/m2 FEW
22:14 -10.7 °F /  -23.7 °C -12.1 °F /  -24.5 °C 1013.8in /  34327.3hPa Calm     90% 0.0in /  0mm WeatherDisplay:10.37 W/m2 FEW
22:19 -10.7 °F /  -23.7 °C -11.9 °F /  -24.4 °C 1013.8in /  34327.3hPa Calm     91% 0.0in /  0mm WeatherDisplay:10.37 W/m2 FEW
22:24 -10.7 °F /  -23.7 °C -11.8 °F /  -24.3 °C 1013.8in /  34327.3hPa Calm     91% 0.0in /  0mm WeatherDisplay:10.37 W/m2 FEW
22:34 -10.5 °F /  -23.6 °C -11.7 °F /  -24.3 °C 1013.8in /  34327.3hPa Calm     91% 0.0in /  0mm WeatherDisplay:10.37 W/m2 FEW
22:39 -10.4 °F /  -23.6 °C -11.6 °F /  -24.2 °C 1013.8in /  34327.3hPa Calm     91% 0.0in /  0mm WeatherDisplay:10.37 W/m2 FEW
22:44 -10.3 °F /  -23.5 °C -11.4 °F /  -24.1 °C 1013.8in /  34327.3hPa Calm     91% 0.0in /  0mm WeatherDisplay:10.37 W/m2 FEW
22:49 -10.1 °F /  -23.4 °C -11.2 °F /  -24 °C 1013.8in /  34327.3hPa Calm     92% 0.0in /  0mm WeatherDisplay:10.37 W/m2 FEW
22:54 -9.9 °F /  -23.3 °C -11.0 °F /  -23.9 °C 1013.8in /  34327.3hPa Calm     92% 0.0in /  0mm WeatherDisplay:10.37 W/m2 FEW
23:04 -9.9 °F /  -23.3 °C -10.9 °F /  -23.8 °C 1013.8in /  34327.3hPa Calm     92% 0.0in /  0mm WeatherDisplay:10.37 W/m2 FEW
23:09 -10.0 °F /  -23.3 °C -11.2 °F /  -24 °C 1013.8in /  34327.3hPa Calm     91% 0.0in /  0mm WeatherDisplay:10.37 W/m2 FEW
23:24 -10.1 °F /  -23.4 °C -11.2 °F /  -24 °C 1013.4in /  34313.7hPa Calm     91% 0.0in /  0mm WeatherDisplay:10.37 W/m2 FEW
23:34 -10.0 °F /  -23.3 °C -11.2 °F /  -24 °C 1013.4in /  34313.7hPa Calm     91% 0.0in /  0mm WeatherDisplay:10.37 W/m2 FEW
23:54 -10.0 °F /  -23.3 °C -11.2 °F /  -24 °C 1013.4in /  34313.7hPa Calm     91% 0.0in /  0mm WeatherDisplay:10.37 W/m2 FEW
23:59 -10.1 °F /  -23.4 °C -11.3 °F /  -24.1 °C 1013.4in /  34313.7hPa Calm     91% 0.0in /  0mm WeatherDisplay:10.37 W/m2 FEW
Tuulensuunkaari, Veikkola, Suomi
Compliments of Weather Underground - 2.5 mb